sensor_id;sensor_type;location;lat;lon;timestamp;temperature;humidity
7360;DHT22;3720;48.274;7.796;2023-04-25T00:00:51;10.80;99.90
7360;DHT22;3720;48.274;7.796;2023-04-25T00:03:24;10.80;99.90
7360;DHT22;3720;48.274;7.796;2023-04-25T00:05:56;10.80;99.90
7360;DHT22;3720;48.274;7.796;2023-04-25T00:08:28;10.80;99.90
7360;DHT22;3720;48.274;7.796;2023-04-25T00:11:01;10.70;99.90
7360;DHT22;3720;48.274;7.796;2023-04-25T00:13:34;10.70;99.90
7360;DHT22;3720;48.274;7.796;2023-04-25T00:16:06;10.70;99.90
7360;DHT22;3720;48.274;7.796;2023-04-25T00:18:38;10.70;99.90
7360;DHT22;3720;48.274;7.796;2023-04-25T00:21:10;10.60;99.90
7360;DHT22;3720;48.274;7.796;2023-04-25T00:23:42;10.50;99.90
7360;DHT22;3720;48.274;7.796;2023-04-25T00:26:14;10.40;99.90
7360;DHT22;3720;48.274;7.796;2023-04-25T00:28:47;10.40;99.90
7360;DHT22;3720;48.274;7.796;2023-04-25T00:31:19;10.40;99.90
7360;DHT22;3720;48.274;7.796;2023-04-25T00:33:51;10.40;99.90
7360;DHT22;3720;48.274;7.796;2023-04-25T00:36:23;10.40;99.90
7360;DHT22;3720;48.274;7.796;2023-04-25T00:38:56;10.40;99.90
7360;DHT22;3720;48.274;7.796;2023-04-25T00:41:28;10.40;99.90
7360;DHT22;3720;48.274;7.796;2023-04-25T00:44:03;10.40;99.90
7360;DHT22;3720;48.274;7.796;2023-04-25T00:46:35;10.30;99.90
7360;DHT22;3720;48.274;7.796;2023-04-25T00:49:07;10.30;99.90
7360;DHT22;3720;48.274;7.796;2023-04-25T00:51:45;10.30;99.90
7360;DHT22;3720;48.274;7.796;2023-04-25T00:54:17;10.20;99.90
7360;DHT22;3720;48.274;7.796;2023-04-25T00:56:50;10.20;99.90
7360;DHT22;3720;48.274;7.796;2023-04-25T00:59:23;10.20;99.90
7360;DHT22;3720;48.274;7.796;2023-04-25T01:01:56;10.20;99.90
7360;DHT22;3720;48.274;7.796;2023-04-25T01:04:28;10.10;99.90
7360;DHT22;3720;48.274;7.796;2023-04-25T01:07:00;10.10;99.90
7360;DHT22;3720;48.274;7.796;2023-04-25T01:09:33;10.00;99.90
7360;DHT22;3720;48.274;7.796;2023-04-25T01:12:06;10.00;99.90
7360;DHT22;3720;48.274;7.796;2023-04-25T01:14:39;10.00;99.90
7360;DHT22;3720;48.274;7.796;2023-04-25T01:17:12;9.90;99.90
7360;DHT22;3720;48.274;7.796;2023-04-25T01:19:45;9.90;99.90
7360;DHT22;3720;48.274;7.796;2023-04-25T01:22:20;9.90;99.90
7360;DHT22;3720;48.274;7.796;2023-04-25T01:24:53;9.90;99.90
7360;DHT22;3720;48.274;7.796;2023-04-25T01:27:25;9.90;99.90
7360;DHT22;3720;48.274;7.796;2023-04-25T01:29:57;9.90;99.90
7360;DHT22;3720;48.274;7.796;2023-04-25T01:32:30;9.80;99.90
7360;DHT22;3720;48.274;7.796;2023-04-25T01:35:11;9.90;99.90
7360;DHT22;3720;48.274;7.796;2023-04-25T01:37:45;9.80;99.90
7360;DHT22;3720;48.274;7.796;2023-04-25T01:40:17;9.80;99.90
7360;DHT22;3720;48.274;7.796;2023-04-25T01:42:51;9.80;99.90
7360;DHT22;3720;48.274;7.796;2023-04-25T01:45:23;9.80;99.90
7360;DHT22;3720;48.274;7.796;2023-04-25T01:47:55;9.80;99.90
7360;DHT22;3720;48.274;7.796;2023-04-25T01:50:29;9.80;99.90
7360;DHT22;3720;48.274;7.796;2023-04-25T01:53:04;9.80;99.90
7360;DHT22;3720;48.274;7.796;2023-04-25T01:55:36;9.70;99.90
7360;DHT22;3720;48.274;7.796;2023-04-25T01:58:08;9.60;99.90
7360;DHT22;3720;48.274;7.796;2023-04-25T02:00:43;9.50;99.90
7360;DHT22;3720;48.274;7.796;2023-04-25T02:03:15;9.50;99.90
7360;DHT22;3720;48.274;7.796;2023-04-25T02:05:47;9.50;99.90
7360;DHT22;3720;48.274;7.796;2023-04-25T02:08:20;9.50;99.90
7360;DHT22;3720;48.274;7.796;2023-04-25T02:10:52;9.40;99.90
7360;DHT22;3720;48.274;7.796;2023-04-25T02:13:23;9.30;99.90
7360;DHT22;3720;48.274;7.796;2023-04-25T02:15:55;9.40;99.90
7360;DHT22;3720;48.274;7.796;2023-04-25T02:18:27;9.30;99.90
7360;DHT22;3720;48.274;7.796;2023-04-25T02:21:00;9.20;99.90
7360;DHT22;3720;48.274;7.796;2023-04-25T02:23:34;9.20;99.90
7360;DHT22;3720;48.274;7.796;2023-04-25T02:26:06;9.10;99.90
7360;DHT22;3720;48.274;7.796;2023-04-25T02:28:38;9.00;99.90
7360;DHT22;3720;48.274;7.796;2023-04-25T02:31:10;8.90;99.90
7360;DHT22;3720;48.274;7.796;2023-04-25T02:33:42;8.90;99.90
7360;DHT22;3720;48.274;7.796;2023-04-25T02:36:15;8.80;99.90
7360;DHT22;3720;48.274;7.796;2023-04-25T02:38:48;8.90;99.90
7360;DHT22;3720;48.274;7.796;2023-04-25T02:41:20;8.90;99.90
7360;DHT22;3720;48.274;7.796;2023-04-25T02:43:52;8.90;99.90
7360;DHT22;3720;48.274;7.796;2023-04-25T02:46:24;8.80;99.90
7360;DHT22;3720;48.274;7.796;2023-04-25T02:48:56;8.80;99.90
7360;DHT22;3720;48.274;7.796;2023-04-25T02:51:27;8.90;99.90
7360;DHT22;3720;48.274;7.796;2023-04-25T02:54:02;8.90;99.90
7360;DHT22;3720;48.274;7.796;2023-04-25T02:56:34;9.00;99.90
7360;DHT22;3720;48.274;7.796;2023-04-25T02:59:06;9.00;99.90
7360;DHT22;3720;48.274;7.796;2023-04-25T03:01:38;9.00;99.90
7360;DHT22;3720;48.274;7.796;2023-04-25T03:04:10;9.00;99.90
7360;DHT22;3720;48.274;7.796;2023-04-25T03:06:42;9.10;99.90
7360;DHT22;3720;48.274;7.796;2023-04-25T03:09:15;9.10;99.90
7360;DHT22;3720;48.274;7.796;2023-04-25T03:11:48;9.10;99.90
7360;DHT22;3720;48.274;7.796;2023-04-25T03:14:20;9.00;99.90
7360;DHT22;3720;48.274;7.796;2023-04-25T03:16:51;9.00;99.90
7360;DHT22;3720;48.274;7.796;2023-04-25T03:19:24;9.10;99.90
7360;DHT22;3720;48.274;7.796;2023-04-25T03:21:55;9.00;99.90
7360;DHT22;3720;48.274;7.796;2023-04-25T03:24:29;9.00;99.90
7360;DHT22;3720;48.274;7.796;2023-04-25T03:27:01;8.90;99.90
7360;DHT22;3720;48.274;7.796;2023-04-25T03:29:33;8.80;99.90
7360;DHT22;3720;48.274;7.796;2023-04-25T03:32:06;8.80;99.90
7360;DHT22;3720;48.274;7.796;2023-04-25T03:34:38;8.70;99.90
7360;DHT22;3720;48.274;7.796;2023-04-25T03:37:10;8.70;99.90
7360;DHT22;3720;48.274;7.796;2023-04-25T03:39:43;8.70;99.90
7360;DHT22;3720;48.274;7.796;2023-04-25T03:42:15;8.70;99.90
7360;DHT22;3720;48.274;7.796;2023-04-25T03:44:47;8.70;99.90
7360;DHT22;3720;48.274;7.796;2023-04-25T03:47:19;8.80;99.90
7360;DHT22;3720;48.274;7.796;2023-04-25T03:49:51;8.70;99.90
7360;DHT22;3720;48.274;7.796;2023-04-25T03:52:22;8.70;99.90
7360;DHT22;3720;48.274;7.796;2023-04-25T03:54:56;8.70;99.90
7360;DHT22;3720;48.274;7.796;2023-04-25T03:57:28;8.70;99.90
7360;DHT22;3720;48.274;7.796;2023-04-25T04:00:00;8.80;99.90
7360;DHT22;3720;48.274;7.796;2023-04-25T04:02:31;8.70;99.90
7360;DHT22;3720;48.274;7.796;2023-04-25T04:05:05;8.70;99.90
7360;DHT22;3720;48.274;7.796;2023-04-25T04:07:37;8.70;99.90
7360;DHT22;3720;48.274;7.796;2023-04-25T04:10:12;8.60;99.90
7360;DHT22;3720;48.274;7.796;2023-04-25T04:12:43;8.60;99.90
7360;DHT22;3720;48.274;7.796;2023-04-25T04:15:16;8.60;99.90
7360;DHT22;3720;48.274;7.796;2023-04-25T04:17:48;8.60;99.90
7360;DHT22;3720;48.274;7.796;2023-04-25T04:20:20;8.70;99.90
7360;DHT22;3720;48.274;7.796;2023-04-25T04:22:52;8.60;99.90
7360;DHT22;3720;48.274;7.796;2023-04-25T04:25:25;8.60;99.90
7360;DHT22;3720;48.274;7.796;2023-04-25T04:27:58;8.80;99.90
7360;DHT22;3720;48.274;7.796;2023-04-25T04:30:31;8.80;99.90
7360;DHT22;3720;48.274;7.796;2023-04-25T04:33:06;8.70;99.90
7360;DHT22;3720;48.274;7.796;2023-04-25T04:35:39;8.70;99.90
7360;DHT22;3720;48.274;7.796;2023-04-25T04:38:12;8.60;99.90
7360;DHT22;3720;48.274;7.796;2023-04-25T04:40:47;8.60;99.90
7360;DHT22;3720;48.274;7.796;2023-04-25T04:43:19;8.60;99.90
7360;DHT22;3720;48.274;7.796;2023-04-25T04:45:51;8.50;99.90
7360;DHT22;3720;48.274;7.796;2023-04-25T04:48:22;8.50;99.90
7360;DHT22;3720;48.274;7.796;2023-04-25T04:50:55;8.40;99.90
7360;DHT22;3720;48.274;7.796;2023-04-25T04:53:26;8.50;99.90
7360;DHT22;3720;48.274;7.796;2023-04-25T04:56:00;8.50;99.90
7360;DHT22;3720;48.274;7.796;2023-04-25T04:58:32;8.50;99.90
7360;DHT22;3720;48.274;7.796;2023-04-25T05:01:04;8.50;99.90
7360;DHT22;3720;48.274;7.796;2023-04-25T05:03:37;8.60;99.90
7360;DHT22;3720;48.274;7.796;2023-04-25T05:06:09;8.70;99.90
7360;DHT22;3720;48.274;7.796;2023-04-25T05:08:41;8.60;99.90
7360;DHT22;3720;48.274;7.796;2023-04-25T05:11:15;8.70;99.90
7360;DHT22;3720;48.274;7.796;2023-04-25T05:13:47;8.70;99.90
7360;DHT22;3720;48.274;7.796;2023-04-25T05:16:19;8.70;99.90
7360;DHT22;3720;48.274;7.796;2023-04-25T05:18:51;8.80;99.90
7360;DHT22;3720;48.274;7.796;2023-04-25T05:21:23;8.80;99.90
7360;DHT22;3720;48.274;7.796;2023-04-25T05:23:55;8.90;99.90
7360;DHT22;3720;48.274;7.796;2023-04-25T05:26:29;8.90;99.90
7360;DHT22;3720;48.274;7.796;2023-04-25T05:29:01;8.90;99.90
7360;DHT22;3720;48.274;7.796;2023-04-25T05:31:33;8.90;99.90
7360;DHT22;3720;48.274;7.796;2023-04-25T05:34:05;9.00;99.90
7360;DHT22;3720;48.274;7.796;2023-04-25T05:36:37;9.00;99.90
7360;DHT22;3720;48.274;7.796;2023-04-25T05:39:09;9.00;99.90
7360;DHT22;3720;48.274;7.796;2023-04-25T05:41:43;9.00;99.90
7360;DHT22;3720;48.274;7.796;2023-04-25T05:44:15;9.00;99.90
7360;DHT22;3720;48.274;7.796;2023-04-25T05:46:47;9.00;99.90
7360;DHT22;3720;48.274;7.796;2023-04-25T05:49:19;9.00;99.90
7360;DHT22;3720;48.274;7.796;2023-04-25T05:51:51;8.90;99.90
7360;DHT22;3720;48.274;7.796;2023-04-25T05:54:23;8.80;99.90
7360;DHT22;3720;48.274;7.796;2023-04-25T05:56:57;8.80;99.90
7360;DHT22;3720;48.274;7.796;2023-04-25T05:59:29;8.90;99.90
7360;DHT22;3720;48.274;7.796;2023-04-25T06:02:01;8.80;99.90
7360;DHT22;3720;48.274;7.796;2023-04-25T06:04:33;8.80;99.90
7360;DHT22;3720;48.274;7.796;2023-04-25T06:07:05;8.70;99.90
7360;DHT22;3720;48.274;7.796;2023-04-25T06:09:38;8.70;99.90
7360;DHT22;3720;48.274;7.796;2023-04-25T06:12:12;8.60;99.90
7360;DHT22;3720;48.274;7.796;2023-04-25T06:14:44;8.60;99.90
7360;DHT22;3720;48.274;7.796;2023-04-25T06:17:16;8.60;99.90
7360;DHT22;3720;48.274;7.796;2023-04-25T06:19:48;8.50;99.90
7360;DHT22;3720;48.274;7.796;2023-04-25T06:22:20;8.50;99.90
7360;DHT22;3720;48.274;7.796;2023-04-25T06:24:52;8.40;99.90
7360;DHT22;3720;48.274;7.796;2023-04-25T06:27:25;8.40;99.90
7360;DHT22;3720;48.274;7.796;2023-04-25T06:29:57;8.40;99.90
7360;DHT22;3720;48.274;7.796;2023-04-25T06:32:28;8.40;99.90
7360;DHT22;3720;48.274;7.796;2023-04-25T06:35:00;8.40;99.90
7360;DHT22;3720;48.274;7.796;2023-04-25T06:37:32;8.30;99.90
7360;DHT22;3720;48.274;7.796;2023-04-25T06:40:05;8.30;99.90
7360;DHT22;3720;48.274;7.796;2023-04-25T06:42:39;8.30;99.90
7360;DHT22;3720;48.274;7.796;2023-04-25T06:45:11;8.30;99.90
7360;DHT22;3720;48.274;7.796;2023-04-25T06:47:43;8.40;99.90
7360;DHT22;3720;48.274;7.796;2023-04-25T06:50:15;8.40;99.90
7360;DHT22;3720;48.274;7.796;2023-04-25T06:52:47;8.40;99.90
7360;DHT22;3720;48.274;7.796;2023-04-25T06:55:19;8.30;99.90
7360;DHT22;3720;48.274;7.796;2023-04-25T06:57:52;8.40;99.90
7360;DHT22;3720;48.274;7.796;2023-04-25T07:00:24;8.40;99.90
7360;DHT22;3720;48.274;7.796;2023-04-25T07:02:56;8.40;99.90
7360;DHT22;3720;48.274;7.796;2023-04-25T07:05:28;8.50;99.90
7360;DHT22;3720;48.274;7.796;2023-04-25T07:08:00;8.60;99.90
7360;DHT22;3720;48.274;7.796;2023-04-25T07:10:32;8.60;99.90
7360;DHT22;3720;48.274;7.796;2023-04-25T07:13:05;8.60;99.90
7360;DHT22;3720;48.274;7.796;2023-04-25T07:15:37;8.60;99.90
7360;DHT22;3720;48.274;7.796;2023-04-25T07:18:09;8.50;99.90
7360;DHT22;3720;48.274;7.796;2023-04-25T07:20:41;8.50;99.90
7360;DHT22;3720;48.274;7.796;2023-04-25T07:23:13;8.50;99.90
7360;DHT22;3720;48.274;7.796;2023-04-25T07:25:45;8.60;99.90
7360;DHT22;3720;48.274;7.796;2023-04-25T07:28:19;8.60;99.90
7360;DHT22;3720;48.274;7.796;2023-04-25T07:30:51;8.60;99.90
7360;DHT22;3720;48.274;7.796;2023-04-25T07:33:23;8.70;99.90
7360;DHT22;3720;48.274;7.796;2023-04-25T07:35:55;8.80;99.90
7360;DHT22;3720;48.274;7.796;2023-04-25T07:38:27;8.80;99.90
7360;DHT22;3720;48.274;7.796;2023-04-25T07:40:59;8.80;99.90
7360;DHT22;3720;48.274;7.796;2023-04-25T07:43:32;8.80;99.90
7360;DHT22;3720;48.274;7.796;2023-04-25T07:46:04;8.80;99.90
7360;DHT22;3720;48.274;7.796;2023-04-25T07:48:36;8.80;99.90
7360;DHT22;3720;48.274;7.796;2023-04-25T07:51:08;8.70;99.90
7360;DHT22;3720;48.274;7.796;2023-04-25T07:53:40;8.70;99.90
7360;DHT22;3720;48.274;7.796;2023-04-25T07:56:12;8.70;99.90
7360;DHT22;3720;48.274;7.796;2023-04-25T07:58:46;8.70;99.90
7360;DHT22;3720;48.274;7.796;2023-04-25T08:01:17;8.70;99.90
7360;DHT22;3720;48.274;7.796;2023-04-25T08:03:52;8.70;99.90
7360;DHT22;3720;48.274;7.796;2023-04-25T08:06:23;8.70;99.90
7360;DHT22;3720;48.274;7.796;2023-04-25T08:08:55;8.60;99.90
7360;DHT22;3720;48.274;7.796;2023-04-25T08:11:27;8.70;99.90
7360;DHT22;3720;48.274;7.796;2023-04-25T08:14:00;8.70;99.90
7360;DHT22;3720;48.274;7.796;2023-04-25T08:16:33;8.80;99.90
7360;DHT22;3720;48.274;7.796;2023-04-25T08:19:05;8.80;99.90
7360;DHT22;3720;48.274;7.796;2023-04-25T08:21:37;8.80;99.90
7360;DHT22;3720;48.274;7.796;2023-04-25T08:24:09;8.90;99.90
7360;DHT22;3720;48.274;7.796;2023-04-25T08:26:41;9.00;99.90
7360;DHT22;3720;48.274;7.796;2023-04-25T08:29:15;9.00;99.90
7360;DHT22;3720;48.274;7.796;2023-04-25T08:31:47;9.10;99.90
7360;DHT22;3720;48.274;7.796;2023-04-25T08:34:19;9.10;99.90
7360;DHT22;3720;48.274;7.796;2023-04-25T08:36:52;9.10;99.90
7360;DHT22;3720;48.274;7.796;2023-04-25T08:39:24;9.10;99.90
7360;DHT22;3720;48.274;7.796;2023-04-25T08:41:56;9.20;99.90
7360;DHT22;3720;48.274;7.796;2023-04-25T08:44:30;9.20;99.90
7360;DHT22;3720;48.274;7.796;2023-04-25T08:47:04;9.30;99.90
7360;DHT22;3720;48.274;7.796;2023-04-25T08:49:37;9.30;99.90
7360;DHT22;3720;48.274;7.796;2023-04-25T08:52:11;9.40;99.90
7360;DHT22;3720;48.274;7.796;2023-04-25T08:54:46;9.50;99.90
7360;DHT22;3720;48.274;7.796;2023-04-25T08:57:19;9.50;99.90
7360;DHT22;3720;48.274;7.796;2023-04-25T08:59:54;9.50;99.90
7360;DHT22;3720;48.274;7.796;2023-04-25T09:02:27;9.60;99.90
7360;DHT22;3720;48.274;7.796;2023-04-25T09:05:02;9.60;99.90
7360;DHT22;3720;48.274;7.796;2023-04-25T09:07:35;9.70;99.90
7360;DHT22;3720;48.274;7.796;2023-04-25T09:10:07;9.80;99.90
7360;DHT22;3720;48.274;7.796;2023-04-25T09:12:40;9.80;99.90
7360;DHT22;3720;48.274;7.796;2023-04-25T09:15:14;9.80;99.90
7360;DHT22;3720;48.274;7.796;2023-04-25T09:17:46;9.90;99.90
7360;DHT22;3720;48.274;7.796;2023-04-25T09:20:26;9.90;99.90
7360;DHT22;3720;48.274;7.796;2023-04-25T09:23:02;9.90;99.90
7360;DHT22;3720;48.274;7.796;2023-04-25T09:25:36;9.90;99.90
7360;DHT22;3720;48.274;7.796;2023-04-25T09:28:10;10.00;99.90
7360;DHT22;3720;48.274;7.796;2023-04-25T09:30:46;10.00;99.90
7360;DHT22;3720;48.274;7.796;2023-04-25T09:33:18;10.00;99.90
7360;DHT22;3720;48.274;7.796;2023-04-25T09:35:50;9.90;99.90
7360;DHT22;3720;48.274;7.796;2023-04-25T09:38:25;9.90;99.90
7360;DHT22;3720;48.274;7.796;2023-04-25T09:40:57;10.00;99.90
7360;DHT22;3720;48.274;7.796;2023-04-25T09:43:31;9.90;99.90
7360;DHT22;3720;48.274;7.796;2023-04-25T09:46:08;9.90;99.90
7360;DHT22;3720;48.274;7.796;2023-04-25T09:48:48;10.00;99.90
7360;DHT22;3720;48.274;7.796;2023-04-25T09:51:19;10.10;99.90
7360;DHT22;3720;48.274;7.796;2023-04-25T09:53:52;10.10;99.90
7360;DHT22;3720;48.274;7.796;2023-04-25T09:56:26;10.30;99.90
7360;DHT22;3720;48.274;7.796;2023-04-25T09:59:03;10.40;99.90
7360;DHT22;3720;48.274;7.796;2023-04-25T10:01:40;10.50;99.90
7360;DHT22;3720;48.274;7.796;2023-04-25T10:04:12;10.70;99.90
7360;DHT22;3720;48.274;7.796;2023-04-25T10:06:45;10.90;99.90
7360;DHT22;3720;48.274;7.796;2023-04-25T10:09:20;11.00;99.90
7360;DHT22;3720;48.274;7.796;2023-04-25T10:11:54;11.10;99.90
7360;DHT22;3720;48.274;7.796;2023-04-25T10:14:26;11.00;99.90
7360;DHT22;3720;48.274;7.796;2023-04-25T10:17:01;11.20;99.90
7360;DHT22;3720;48.274;7.796;2023-04-25T10:19:33;11.20;99.90
7360;DHT22;3720;48.274;7.796;2023-04-25T10:22:14;11.30;99.90
7360;DHT22;3720;48.274;7.796;2023-04-25T10:24:49;11.30;99.90
7360;DHT22;3720;48.274;7.796;2023-04-25T10:27:22;11.30;99.90
7360;DHT22;3720;48.274;7.796;2023-04-25T10:30:01;11.30;99.90
7360;DHT22;3720;48.274;7.796;2023-04-25T10:32:36;11.30;99.90
7360;DHT22;3720;48.274;7.796;2023-04-25T10:35:15;11.40;99.90
7360;DHT22;3720;48.274;7.796;2023-04-25T10:37:57;11.50;99.90
7360;DHT22;3720;48.274;7.796;2023-04-25T10:40:29;11.60;99.90
7360;DHT22;3720;48.274;7.796;2023-04-25T10:43:33;11.80;99.90
7360;DHT22;3720;48.274;7.796;2023-04-25T10:46:18;12.10;99.90
7360;DHT22;3720;48.274;7.796;2023-04-25T10:48:53;12.40;99.90
7360;DHT22;3720;48.274;7.796;2023-04-25T10:51:26;12.50;99.90
7360;DHT22;3720;48.274;7.796;2023-04-25T10:54:00;12.60;99.90
7360;DHT22;3720;48.274;7.796;2023-04-25T10:56:33;12.80;99.90
7360;DHT22;3720;48.274;7.796;2023-04-25T10:59:09;13.10;99.90
7360;DHT22;3720;48.274;7.796;2023-04-25T11:01:42;13.40;99.90
7360;DHT22;3720;48.274;7.796;2023-04-25T11:04:24;13.50;99.90
7360;DHT22;3720;48.274;7.796;2023-04-25T11:07:10;13.80;99.90
7360;DHT22;3720;48.274;7.796;2023-04-25T11:09:45;14.00;99.90
7360;DHT22;3720;48.274;7.796;2023-04-25T11:12:17;14.00;99.90
7360;DHT22;3720;48.274;7.796;2023-04-25T11:14:49;14.20;99.90
7360;DHT22;3720;48.274;7.796;2023-04-25T11:17:25;14.40;99.90
7360;DHT22;3720;48.274;7.796;2023-04-25T11:19:59;14.70;99.90
7360;DHT22;3720;48.274;7.796;2023-04-25T11:22:31;14.90;99.90
7360;DHT22;3720;48.274;7.796;2023-04-25T11:25:07;14.80;99.90
7360;DHT22;3720;48.274;7.796;2023-04-25T11:27:49;14.90;99.90
7360;DHT22;3720;48.274;7.796;2023-04-25T11:30:22;15.40;99.90
7360;DHT22;3720;48.274;7.796;2023-04-25T11:32:55;15.40;99.90
7360;DHT22;3720;48.274;7.796;2023-04-25T11:35:29;15.20;99.90
7360;DHT22;3720;48.274;7.796;2023-04-25T11:38:01;15.10;99.90
7360;DHT22;3720;48.274;7.796;2023-04-25T11:40:33;15.50;99.90
7360;DHT22;3720;48.274;7.796;2023-04-25T11:43:09;15.60;99.90
7360;DHT22;3720;48.274;7.796;2023-04-25T11:45:41;15.50;99.90
7360;DHT22;3720;48.274;7.796;2023-04-25T11:48:17;15.20;99.90
7360;DHT22;3720;48.274;7.796;2023-04-25T11:50:51;14.80;99.90
7360;DHT22;3720;48.274;7.796;2023-04-25T11:53:22;14.40;99.90
7360;DHT22;3720;48.274;7.796;2023-04-25T11:55:55;14.00;99.90
7360;DHT22;3720;48.274;7.796;2023-04-25T11:58:27;13.60;99.90
7360;DHT22;3720;48.274;7.796;2023-04-25T12:00:59;13.10;99.90
7360;DHT22;3720;48.274;7.796;2023-04-25T12:03:33;12.80;99.90
7360;DHT22;3720;48.274;7.796;2023-04-25T12:06:07;12.60;99.90
7360;DHT22;3720;48.274;7.796;2023-04-25T12:08:39;12.50;99.90
7360;DHT22;3720;48.274;7.796;2023-04-25T12:11:30;12.40;99.90
7360;DHT22;3720;48.274;7.796;2023-04-25T12:14:03;12.10;99.90
7360;DHT22;3720;48.274;7.796;2023-04-25T12:16:42;11.90;99.90
7360;DHT22;3720;48.274;7.796;2023-04-25T12:19:15;11.70;99.90
7360;DHT22;3720;48.274;7.796;2023-04-25T12:21:49;11.50;99.90
7360;DHT22;3720;48.274;7.796;2023-04-25T12:24:22;11.40;99.90
7360;DHT22;3720;48.274;7.796;2023-04-25T12:26:59;11.30;99.90
7360;DHT22;3720;48.274;7.796;2023-04-25T12:29:32;11.30;99.90
7360;DHT22;3720;48.274;7.796;2023-04-25T12:32:05;11.30;99.90
7360;DHT22;3720;48.274;7.796;2023-04-25T12:34:37;11.30;99.90
7360;DHT22;3720;48.274;7.796;2023-04-25T12:37:10;11.30;99.90
7360;DHT22;3720;48.274;7.796;2023-04-25T12:39:43;11.30;99.90
7360;DHT22;3720;48.274;7.796;2023-04-25T12:42:15;11.30;99.90
7360;DHT22;3720;48.274;7.796;2023-04-25T12:44:48;11.50;99.90
7360;DHT22;3720;48.274;7.796;2023-04-25T12:47:19;11.70;99.90
7360;DHT22;3720;48.274;7.796;2023-04-25T12:49:51;11.80;99.90
7360;DHT22;3720;48.274;7.796;2023-04-25T12:52:25;11.90;99.90
7360;DHT22;3720;48.274;7.796;2023-04-25T12:54:57;11.90;99.90
7360;DHT22;3720;48.274;7.796;2023-04-25T12:57:29;11.90;99.90
7360;DHT22;3720;48.274;7.796;2023-04-25T13:00:01;11.90;99.90
7360;DHT22;3720;48.274;7.796;2023-04-25T13:02:34;11.80;99.90
7360;DHT22;3720;48.274;7.796;2023-04-25T13:05:08;11.80;99.90
7360;DHT22;3720;48.274;7.796;2023-04-25T13:07:41;11.60;99.90
7360;DHT22;3720;48.274;7.796;2023-04-25T13:10:13;11.50;99.90
7360;DHT22;3720;48.274;7.796;2023-04-25T13:12:45;11.60;99.90
7360;DHT22;3720;48.274;7.796;2023-04-25T13:15:17;12.10;99.90
7360;DHT22;3720;48.274;7.796;2023-04-25T13:17:49;12.60;99.90
7360;DHT22;3720;48.274;7.796;2023-04-25T13:20:21;13.00;99.90
7360;DHT22;3720;48.274;7.796;2023-04-25T13:22:55;13.50;99.90
7360;DHT22;3720;48.274;7.796;2023-04-25T13:25:27;13.90;99.90
7360;DHT22;3720;48.274;7.796;2023-04-25T13:27:58;14.20;99.90
7360;DHT22;3720;48.274;7.796;2023-04-25T13:30:30;14.70;99.90
7360;DHT22;3720;48.274;7.796;2023-04-25T13:33:02;15.10;99.90
7360;DHT22;3720;48.274;7.796;2023-04-25T13:35:36;15.00;99.90
7360;DHT22;3720;48.274;7.796;2023-04-25T13:38:09;14.90;99.90
7360;DHT22;3720;48.274;7.796;2023-04-25T13:40:41;14.80;99.90
7360;DHT22;3720;48.274;7.796;2023-04-25T13:43:13;14.60;99.90
7360;DHT22;3720;48.274;7.796;2023-04-25T13:45:45;14.50;99.90
7360;DHT22;3720;48.274;7.796;2023-04-25T13:48:18;14.20;99.90
7360;DHT22;3720;48.274;7.796;2023-04-25T13:50:50;13.90;99.90
7360;DHT22;3720;48.274;7.796;2023-04-25T13:53:23;13.70;99.90
7360;DHT22;3720;48.274;7.796;2023-04-25T13:55:55;13.30;99.90
7360;DHT22;3720;48.274;7.796;2023-04-25T13:58:27;12.90;99.90
7360;DHT22;3720;48.274;7.796;2023-04-25T14:00:59;12.70;99.90
7360;DHT22;3720;48.274;7.796;2023-04-25T14:03:31;12.60;99.90
7360;DHT22;3720;48.274;7.796;2023-04-25T14:06:04;12.40;99.90
7360;DHT22;3720;48.274;7.796;2023-04-25T14:08:38;12.20;99.90
7360;DHT22;3720;48.274;7.796;2023-04-25T14:11:10;12.20;99.90
7360;DHT22;3720;48.274;7.796;2023-04-25T14:13:42;12.00;99.90
7360;DHT22;3720;48.274;7.796;2023-04-25T14:16:14;11.80;99.90
7360;DHT22;3720;48.274;7.796;2023-04-25T14:18:46;11.70;99.90
7360;DHT22;3720;48.274;7.796;2023-04-25T14:21:18;11.60;99.90
7360;DHT22;3720;48.274;7.796;2023-04-25T14:23:52;11.60;99.90
7360;DHT22;3720;48.274;7.796;2023-04-25T14:26:24;11.40;99.90
7360;DHT22;3720;48.274;7.796;2023-04-25T14:28:56;11.40;99.90
7360;DHT22;3720;48.274;7.796;2023-04-25T14:31:28;11.30;99.90
7360;DHT22;3720;48.274;7.796;2023-04-25T14:34:00;11.20;99.90
7360;DHT22;3720;48.274;7.796;2023-04-25T14:36:32;11.20;99.90
7360;DHT22;3720;48.274;7.796;2023-04-25T14:39:06;11.10;99.90
7360;DHT22;3720;48.274;7.796;2023-04-25T14:41:39;11.10;99.90
7360;DHT22;3720;48.274;7.796;2023-04-25T14:44:11;11.10;99.90
7360;DHT22;3720;48.274;7.796;2023-04-25T14:46:42;11.20;99.90
7360;DHT22;3720;48.274;7.796;2023-04-25T14:49:18;11.20;99.90
7360;DHT22;3720;48.274;7.796;2023-04-25T14:51:51;11.20;99.90
7360;DHT22;3720;48.274;7.796;2023-04-25T14:54:24;11.30;99.90
7360;DHT22;3720;48.274;7.796;2023-04-25T14:56:56;11.30;99.90
7360;DHT22;3720;48.274;7.796;2023-04-25T14:59:28;11.30;99.90
7360;DHT22;3720;48.274;7.796;2023-04-25T15:02:00;11.30;99.90
7360;DHT22;3720;48.274;7.796;2023-04-25T15:04:32;11.40;99.90
7360;DHT22;3720;48.274;7.796;2023-04-25T15:07:05;11.50;99.90
7360;DHT22;3720;48.274;7.796;2023-04-25T15:09:38;11.60;99.90
7360;DHT22;3720;48.274;7.796;2023-04-25T15:12:10;11.80;99.90
7360;DHT22;3720;48.274;7.796;2023-04-25T15:14:42;11.90;99.90
7360;DHT22;3720;48.274;7.796;2023-04-25T15:17:14;11.90;99.90
7360;DHT22;3720;48.274;7.796;2023-04-25T15:19:46;12.00;99.90
7360;DHT22;3720;48.274;7.796;2023-04-25T15:22:18;12.10;99.90
7360;DHT22;3720;48.274;7.796;2023-04-25T15:24:51;12.20;99.90
7360;DHT22;3720;48.274;7.796;2023-04-25T15:27:24;12.20;99.90
7360;DHT22;3720;48.274;7.796;2023-04-25T15:29:57;12.20;99.90
7360;DHT22;3720;48.274;7.796;2023-04-25T15:32:29;12.10;99.90
7360;DHT22;3720;48.274;7.796;2023-04-25T15:35:03;12.10;99.90
7360;DHT22;3720;48.274;7.796;2023-04-25T15:37:37;12.10;99.90
7360;DHT22;3720;48.274;7.796;2023-04-25T15:40:13;12.10;99.90
7360;DHT22;3720;48.274;7.796;2023-04-25T15:42:47;12.10;99.90
7360;DHT22;3720;48.274;7.796;2023-04-25T15:45:23;12.00;99.90
7360;DHT22;3720;48.274;7.796;2023-04-25T15:47:56;12.00;99.90
7360;DHT22;3720;48.274;7.796;2023-04-25T15:50:28;12.10;99.90
7360;DHT22;3720;48.274;7.796;2023-04-25T15:53:00;12.40;99.90
7360;DHT22;3720;48.274;7.796;2023-04-25T15:55:34;12.70;99.90
7360;DHT22;3720;48.274;7.796;2023-04-25T15:58:06;12.80;99.90
7360;DHT22;3720;48.274;7.796;2023-04-25T16:00:38;12.80;99.90
7360;DHT22;3720;48.274;7.796;2023-04-25T16:03:10;12.80;99.90
7360;DHT22;3720;48.274;7.796;2023-04-25T16:05:42;12.80;99.90
7360;DHT22;3720;48.274;7.796;2023-04-25T16:08:13;12.70;99.90
7360;DHT22;3720;48.274;7.796;2023-04-25T16:10:48;12.50;99.90
7360;DHT22;3720;48.274;7.796;2023-04-25T16:13:20;12.40;99.90
7360;DHT22;3720;48.274;7.796;2023-04-25T16:15:52;12.40;99.90
7360;DHT22;3720;48.274;7.796;2023-04-25T16:18:24;12.30;99.90
7360;DHT22;3720;48.274;7.796;2023-04-25T16:20:56;12.20;99.90
7360;DHT22;3720;48.274;7.796;2023-04-25T16:23:27;12.10;99.90
7360;DHT22;3720;48.274;7.796;2023-04-25T16:26:02;12.10;99.90
7360;DHT22;3720;48.274;7.796;2023-04-25T16:28:34;12.10;99.90
7360;DHT22;3720;48.274;7.796;2023-04-25T16:31:06;12.00;99.90
7360;DHT22;3720;48.274;7.796;2023-04-25T16:33:38;12.00;99.90
7360;DHT22;3720;48.274;7.796;2023-04-25T16:36:10;11.90;99.90
7360;DHT22;3720;48.274;7.796;2023-04-25T16:38:43;12.00;99.90
7360;DHT22;3720;48.274;7.796;2023-04-25T16:41:16;11.90;99.90
7360;DHT22;3720;48.274;7.796;2023-04-25T16:43:49;11.90;99.90
7360;DHT22;3720;48.274;7.796;2023-04-25T16:46:20;11.80;99.90